Terminal Aerodrome Forecast
Issued by NWS

Home | Current Version | Previous Version | Text Only | Print | Product List | Glossary On
Versions: 1 2 3 4 5 6 7 8 9 10 11 12 13
981
FTUS46 KSTO 252330
TAFMHR
TAF
KMHR 252330Z 2600/2624 22011G18KT P6SM FEW045
     FM260300 VRB06KT P6SM SKC
     FM261400 VRB04KT P6SM BKN030
     FM262200 22007KT P6SM FEW050=

USA.gov is the U.S. government's official web portal to all federal, state and local government web resources and services.